sensor_id;sensor_type;location;lat;lon;timestamp;P1;durP1;ratioP1;P2;durP2;ratioP2
13057;SDS011;6595;49.578;11.012;2022-10-13T00:00:23;42.4;;;23.8;;
13057;SDS011;6595;49.578;11.012;2022-10-13T00:02:23;42.4;;;23.8;;
13057;SDS011;6595;49.578;11.012;2022-10-13T00:04:23;40.7;;;24.0;;
13057;SDS011;6595;49.578;11.012;2022-10-13T00:06:24;40.7;;;24.0;;
13057;SDS011;6595;49.578;11.012;2022-10-13T00:08:23;44.9;;;23.8;;
13057;SDS011;6595;49.578;11.012;2022-10-13T00:10:23;41.7;;;24.5;;
13057;SDS011;6595;49.578;11.012;2022-10-13T00:12:23;43.7;;;23.3;;
13057;SDS011;6595;49.578;11.012;2022-10-13T00:14:23;43.7;;;23.3;;
13057;SDS011;6595;49.578;11.012;2022-10-13T00:16:24;44.0;;;23.6;;
13057;SDS011;6595;49.578;11.012;2022-10-13T00:18:24;44.0;;;24.1;;
13057;SDS011;6595;49.578;11.012;2022-10-13T00:20:24;44.0;;;24.1;;
13057;SDS011;6595;49.578;11.012;2022-10-13T00:22:23;44.4;;;23.4;;
13057;SDS011;6595;49.578;11.012;2022-10-13T00:24:24;41.3;;;23.2;;
13057;SDS011;6595;49.578;11.012;2022-10-13T00:26:24;41.3;;;23.2;;
13057;SDS011;6595;49.578;11.012;2022-10-13T00:28:24;43.3;;;23.2;;
13057;SDS011;6595;49.578;11.012;2022-10-13T00:30:23;44.1;;;23.3;;
13057;SDS011;6595;49.578;11.012;2022-10-13T00:32:23;47.4;;;24.2;;
13057;SDS011;6595;49.578;11.012;2022-10-13T00:34:23;45.3;;;23.3;;
13057;SDS011;6595;49.578;11.012;2022-10-13T00:36:24;45.3;;;23.3;;
13057;SDS011;6595;49.578;11.012;2022-10-13T00:38:24;45.2;;;23.5;;
13057;SDS011;6595;49.578;11.012;2022-10-13T00:40:24;45.4;;;24.2;;
13057;SDS011;6595;49.578;11.012;2022-10-13T00:42:24;48.0;;;23.9;;
13057;SDS011;6595;49.578;11.012;2022-10-13T00:46:25;48.1;;;25.0;;
13057;SDS011;6595;49.578;11.012;2022-10-13T00:48:25;47.4;;;24.5;;
13057;SDS011;6595;49.578;11.012;2022-10-13T00:50:24;48.0;;;25.4;;
13057;SDS011;6595;49.578;11.012;2022-10-13T00:52:23;48.5;;;25.1;;
13057;SDS011;6595;49.578;11.012;2022-10-13T00:54:23;46.8;;;24.7;;
13057;SDS011;6595;49.578;11.012;2022-10-13T00:56:24;46.8;;;24.7;;
13057;SDS011;6595;49.578;11.012;2022-10-13T00:58:24;50.4;;;25.5;;
13057;SDS011;6595;49.578;11.012;2022-10-13T01:00:24;45.4;;;25.2;;
13057;SDS011;6595;49.578;11.012;2022-10-13T01:02:25;50.9;;;25.3;;
13057;SDS011;6595;49.578;11.012;2022-10-13T01:04:24;53.5;;;27.0;;
13057;SDS011;6595;49.578;11.012;2022-10-13T01:06:23;53.5;;;27.0;;
13057;SDS011;6595;49.578;11.012;2022-10-13T01:08:24;47.8;;;24.5;;
13057;SDS011;6595;49.578;11.012;2022-10-13T01:10:25;43.3;;;24.3;;
13057;SDS011;6595;49.578;11.012;2022-10-13T01:12:27;48.1;;;24.8;;
13057;SDS011;6595;49.578;11.012;2022-10-13T01:14:26;48.1;;;24.8;;
13057;SDS011;6595;49.578;11.012;2022-10-13T01:16:24;45.7;;;24.7;;
13057;SDS011;6595;49.578;11.012;2022-10-13T01:18:25;45.9;;;24.2;;
13057;SDS011;6595;49.578;11.012;2022-10-13T01:22:29;46.0;;;25.0;;
13057;SDS011;6595;49.578;11.012;2022-10-13T01:24:27;44.2;;;24.4;;
13057;SDS011;6595;49.578;11.012;2022-10-13T01:26:33;44.7;;;24.3;;
13057;SDS011;6595;49.578;11.012;2022-10-13T01:28:29;42.9;;;24.5;;
13057;SDS011;6595;49.578;11.012;2022-10-13T01:30:24;46.7;;;24.4;;
13057;SDS011;6595;49.578;11.012;2022-10-13T01:32:25;46.4;;;24.3;;
13057;SDS011;6595;49.578;11.012;2022-10-13T01:34:25;46.4;;;24.3;;
13057;SDS011;6595;49.578;11.012;2022-10-13T01:36:25;39.5;;;23.9;;
13057;SDS011;6595;49.578;11.012;2022-10-13T01:38:25;43.5;;;23.4;;
13057;SDS011;6595;49.578;11.012;2022-10-13T01:40:25;39.4;;;23.9;;
13057;SDS011;6595;49.578;11.012;2022-10-13T01:42:24;39.4;;;23.9;;
13057;SDS011;6595;49.578;11.012;2022-10-13T01:44:24;41.9;;;24.6;;
13057;SDS011;6595;49.578;11.012;2022-10-13T01:46:25;40.4;;;24.0;;
13057;SDS011;6595;49.578;11.012;2022-10-13T01:48:24;40.5;;;23.5;;
13057;SDS011;6595;49.578;11.012;2022-10-13T01:50:24;40.5;;;23.5;;
13057;SDS011;6595;49.578;11.012;2022-10-13T01:52:24;35.9;;;23.4;;
13057;SDS011;6595;49.578;11.012;2022-10-13T01:54:23;33.9;;;22.0;;
13057;SDS011;6595;49.578;11.012;2022-10-13T01:56:24;31.1;;;21.5;;
13057;SDS011;6595;49.578;11.012;2022-10-13T01:58:24;34.2;;;22.2;;
13057;SDS011;6595;49.578;11.012;2022-10-13T02:00:23;35.3;;;22.4;;
13057;SDS011;6595;49.578;11.012;2022-10-13T02:02:25;35.3;;;22.4;;
13057;SDS011;6595;49.578;11.012;2022-10-13T02:04:25;35.2;;;22.1;;
13057;SDS011;6595;49.578;11.012;2022-10-13T02:06:25;33.8;;;22.0;;
13057;SDS011;6595;49.578;11.012;2022-10-13T02:08:24;33.3;;;22.1;;
13057;SDS011;6595;49.578;11.012;2022-10-13T02:10:25;28.3;;;19.9;;
13057;SDS011;6595;49.578;11.012;2022-10-13T02:12:24;28.3;;;19.9;;
13057;SDS011;6595;49.578;11.012;2022-10-13T02:14:24;30.7;;;20.9;;
13057;SDS011;6595;49.578;11.012;2022-10-13T02:16:24;31.8;;;20.3;;
13057;SDS011;6595;49.578;11.012;2022-10-13T02:18:25;29.8;;;19.8;;
13057;SDS011;6595;49.578;11.012;2022-10-13T02:20:24;33.7;;;21.3;;
13057;SDS011;6595;49.578;11.012;2022-10-13T02:22:24;33.7;;;21.3;;
13057;SDS011;6595;49.578;11.012;2022-10-13T02:24:24;33.7;;;21.3;;
13057;SDS011;6595;49.578;11.012;2022-10-13T02:26:23;32.4;;;21.4;;
13057;SDS011;6595;49.578;11.012;2022-10-13T02:28:23;33.4;;;20.3;;
13057;SDS011;6595;49.578;11.012;2022-10-13T02:30:25;33.4;;;20.3;;
13057;SDS011;6595;49.578;11.012;2022-10-13T02:32:23;34.1;;;21.2;;
13057;SDS011;6595;49.578;11.012;2022-10-13T02:34:24;31.1;;;21.1;;
13057;SDS011;6595;49.578;11.012;2022-10-13T02:36:23;29.9;;;20.8;;
13057;SDS011;6595;49.578;11.012;2022-10-13T02:38:23;30.0;;;20.4;;
13057;SDS011;6595;49.578;11.012;2022-10-13T02:40:24;30.0;;;20.4;;
13057;SDS011;6595;49.578;11.012;2022-10-13T02:42:24;32.8;;;21.5;;
13057;SDS011;6595;49.578;11.012;2022-10-13T02:44:23;33.2;;;21.1;;
13057;SDS011;6595;49.578;11.012;2022-10-13T02:46:23;31.0;;;20.5;;
13057;SDS011;6595;49.578;11.012;2022-10-13T02:48:24;28.3;;;19.9;;
13057;SDS011;6595;49.578;11.012;2022-10-13T02:50:24;28.3;;;19.9;;
13057;SDS011;6595;49.578;11.012;2022-10-13T02:52:24;29.7;;;20.6;;
13057;SDS011;6595;49.578;11.012;2022-10-13T02:54:24;29.1;;;20.0;;
13057;SDS011;6595;49.578;11.012;2022-10-13T02:56:23;30.5;;;20.0;;
13057;SDS011;6595;49.578;11.012;2022-10-13T02:58:23;29.8;;;20.8;;
13057;SDS011;6595;49.578;11.012;2022-10-13T03:00:24;29.8;;;20.8;;
13057;SDS011;6595;49.578;11.012;2022-10-13T03:02:24;32.9;;;21.4;;
13057;SDS011;6595;49.578;11.012;2022-10-13T03:04:24;34.2;;;21.5;;
13057;SDS011;6595;49.578;11.012;2022-10-13T03:06:23;35.1;;;22.7;;
13057;SDS011;6595;49.578;11.012;2022-10-13T03:08:23;33.6;;;22.4;;
13057;SDS011;6595;49.578;11.012;2022-10-13T03:10:24;33.6;;;22.4;;
13057;SDS011;6595;49.578;11.012;2022-10-13T03:12:24;32.7;;;22.1;;
13057;SDS011;6595;49.578;11.012;2022-10-13T03:14:24;32.0;;;22.1;;
13057;SDS011;6595;49.578;11.012;2022-10-13T03:16:23;32.0;;;22.1;;
13057;SDS011;6595;49.578;11.012;2022-10-13T03:18:24;34.0;;;21.8;;
13057;SDS011;6595;49.578;11.012;2022-10-13T03:20:23;34.0;;;21.8;;
13057;SDS011;6595;49.578;11.012;2022-10-13T03:22:24;33.9;;;21.5;;
13057;SDS011;6595;49.578;11.012;2022-10-13T03:24:23;34.4;;;21.5;;
13057;SDS011;6595;49.578;11.012;2022-10-13T03:26:23;34.0;;;22.3;;
13057;SDS011;6595;49.578;11.012;2022-10-13T03:28:23;35.6;;;22.7;;
13057;SDS011;6595;49.578;11.012;2022-10-13T03:30:24;35.6;;;22.7;;
13057;SDS011;6595;49.578;11.012;2022-10-13T03:32:24;35.6;;;22.3;;
13057;SDS011;6595;49.578;11.012;2022-10-13T03:34:23;36.6;;;23.3;;
13057;SDS011;6595;49.578;11.012;2022-10-13T03:36:24;36.3;;;22.9;;
13057;SDS011;6595;49.578;11.012;2022-10-13T03:38:24;36.0;;;23.7;;
13057;SDS011;6595;49.578;11.012;2022-10-13T03:40:24;36.0;;;23.7;;
13057;SDS011;6595;49.578;11.012;2022-10-13T03:42:24;37.0;;;22.7;;
13057;SDS011;6595;49.578;11.012;2022-10-13T03:44:24;37.0;;;22.7;;
13057;SDS011;6595;49.578;11.012;2022-10-13T03:46:25;37.1;;;23.0;;
13057;SDS011;6595;49.578;11.012;2022-10-13T03:48:23;37.1;;;23.0;;
13057;SDS011;6595;49.578;11.012;2022-10-13T03:50:23;38.6;;;24.0;;
13057;SDS011;6595;49.578;11.012;2022-10-13T03:52:23;35.5;;;23.9;;
13057;SDS011;6595;49.578;11.012;2022-10-13T03:54:24;35.6;;;23.1;;
13057;SDS011;6595;49.578;11.012;2022-10-13T03:56:24;33.9;;;21.6;;
13057;SDS011;6595;49.578;11.012;2022-10-13T03:58:23;33.9;;;21.6;;
13057;SDS011;6595;49.578;11.012;2022-10-13T04:00:23;35.6;;;22.1;;
13057;SDS011;6595;49.578;11.012;2022-10-13T04:02:23;30.2;;;21.6;;
13057;SDS011;6595;49.578;11.012;2022-10-13T04:04:24;30.2;;;21.6;;
13057;SDS011;6595;49.578;11.012;2022-10-13T04:06:23;32.3;;;21.3;;
13057;SDS011;6595;49.578;11.012;2022-10-13T04:08:24;32.3;;;21.3;;
13057;SDS011;6595;49.578;11.012;2022-10-13T04:10:24;33.9;;;22.0;;
13057;SDS011;6595;49.578;11.012;2022-10-13T04:12:24;31.7;;;21.2;;
13057;SDS011;6595;49.578;11.012;2022-10-13T04:14:24;30.9;;;21.4;;
13057;SDS011;6595;49.578;11.012;2022-10-13T04:16:24;29.4;;;20.4;;
13057;SDS011;6595;49.578;11.012;2022-10-13T04:18:23;29.4;;;20.4;;
13057;SDS011;6595;49.578;11.012;2022-10-13T04:20:23;29.3;;;20.5;;
13057;SDS011;6595;49.578;11.012;2022-10-13T04:22:23;28.9;;;21.4;;
13057;SDS011;6595;49.578;11.012;2022-10-13T04:24:23;31.7;;;20.9;;
13057;SDS011;6595;49.578;11.012;2022-10-13T04:26:24;31.7;;;20.9;;
13057;SDS011;6595;49.578;11.012;2022-10-13T04:28:24;30.4;;;20.8;;
13057;SDS011;6595;49.578;11.012;2022-10-13T04:30:23;33.4;;;20.9;;
13057;SDS011;6595;49.578;11.012;2022-10-13T04:32:24;30.9;;;20.9;;
13057;SDS011;6595;49.578;11.012;2022-10-13T04:34:23;30.9;;;20.9;;
13057;SDS011;6595;49.578;11.012;2022-10-13T04:36:24;31.8;;;21.0;;
13057;SDS011;6595;49.578;11.012;2022-10-13T04:38:23;36.2;;;21.6;;
13057;SDS011;6595;49.578;11.012;2022-10-13T04:40:23;37.3;;;21.7;;
13057;SDS011;6595;49.578;11.012;2022-10-13T04:42:23;32.2;;;22.1;;
13057;SDS011;6595;49.578;11.012;2022-10-13T04:44:23;32.2;;;22.1;;
13057;SDS011;6595;49.578;11.012;2022-10-13T04:46:24;29.6;;;21.0;;
13057;SDS011;6595;49.578;11.012;2022-10-13T04:48:24;31.6;;;22.1;;
13057;SDS011;6595;49.578;11.012;2022-10-13T04:50:24;35.2;;;22.5;;
13057;SDS011;6595;49.578;11.012;2022-10-13T04:52:24;38.8;;;24.6;;
13057;SDS011;6595;49.578;11.012;2022-10-13T04:54:24;37.7;;;24.2;;
13057;SDS011;6595;49.578;11.012;2022-10-13T04:56:23;37.7;;;24.2;;
13057;SDS011;6595;49.578;11.012;2022-10-13T04:58:23;40.0;;;25.1;;
13057;SDS011;6595;49.578;11.012;2022-10-13T05:00:23;43.7;;;26.0;;
13057;SDS011;6595;49.578;11.012;2022-10-13T05:02:24;48.2;;;27.1;;
13057;SDS011;6595;49.578;11.012;2022-10-13T05:04:23;45.0;;;27.5;;
13057;SDS011;6595;49.578;11.012;2022-10-13T05:06:24;45.0;;;27.5;;
13057;SDS011;6595;49.578;11.012;2022-10-13T05:08:23;47.4;;;27.5;;
13057;SDS011;6595;49.578;11.012;2022-10-13T05:10:23;46.2;;;26.9;;
13057;SDS011;6595;49.578;11.012;2022-10-13T05:12:23;46.6;;;28.2;;
13057;SDS011;6595;49.578;11.012;2022-10-13T05:14:23;46.0;;;27.4;;
13057;SDS011;6595;49.578;11.012;2022-10-13T05:16:23;46.0;;;27.4;;
13057;SDS011;6595;49.578;11.012;2022-10-13T05:18:23;47.0;;;27.8;;
13057;SDS011;6595;49.578;11.012;2022-10-13T05:20:23;48.8;;;28.2;;
13057;SDS011;6595;49.578;11.012;2022-10-13T05:22:23;50.1;;;29.2;;
13057;SDS011;6595;49.578;11.012;2022-10-13T05:24:23;50.1;;;29.2;;
13057;SDS011;6595;49.578;11.012;2022-10-13T05:26:25;52.0;;;28.6;;
13057;SDS011;6595;49.578;11.012;2022-10-13T05:28:24;53.4;;;29.9;;
13057;SDS011;6595;49.578;11.012;2022-10-13T05:30:23;55.6;;;29.6;;
13057;SDS011;6595;49.578;11.012;2022-10-13T05:32:23;55.6;;;29.6;;
13057;SDS011;6595;49.578;11.012;2022-10-13T05:34:23;52.9;;;29.2;;
13057;SDS011;6595;49.578;11.012;2022-10-13T05:36:24;51.8;;;29.9;;
13057;SDS011;6595;49.578;11.012;2022-10-13T05:38:23;49.1;;;29.1;;
13057;SDS011;6595;49.578;11.012;2022-10-13T05:40:24;48.9;;;29.0;;
13057;SDS011;6595;49.578;11.012;2022-10-13T05:42:23;48.9;;;29.0;;
13057;SDS011;6595;49.578;11.012;2022-10-13T05:44:23;50.7;;;29.0;;
13057;SDS011;6595;49.578;11.012;2022-10-13T05:46:24;57.2;;;32.0;;
13057;SDS011;6595;49.578;11.012;2022-10-13T05:48:24;55.5;;;30.4;;
13057;SDS011;6595;49.578;11.012;2022-10-13T05:50:24;55.5;;;30.4;;
13057;SDS011;6595;49.578;11.012;2022-10-13T05:52:24;48.0;;;28.3;;
13057;SDS011;6595;49.578;11.012;2022-10-13T05:54:24;48.0;;;28.3;;
13057;SDS011;6595;49.578;11.012;2022-10-13T05:56:24;47.7;;;29.4;;
13057;SDS011;6595;49.578;11.012;2022-10-13T05:58:23;47.3;;;28.0;;
13057;SDS011;6595;49.578;11.012;2022-10-13T06:00:23;47.3;;;28.0;;
13057;SDS011;6595;49.578;11.012;2022-10-13T06:02:23;45.9;;;27.4;;
13057;SDS011;6595;49.578;11.012;2022-10-13T06:04:24;45.4;;;28.8;;
13057;SDS011;6595;49.578;11.012;2022-10-13T06:06:23;45.2;;;28.1;;
13057;SDS011;6595;49.578;11.012;2022-10-13T06:08:23;44.7;;;27.2;;
13057;SDS011;6595;49.578;11.012;2022-10-13T06:10:24;44.7;;;27.2;;
13057;SDS011;6595;49.578;11.012;2022-10-13T06:12:24;43.1;;;27.5;;
13057;SDS011;6595;49.578;11.012;2022-10-13T06:14:24;41.7;;;26.5;;
13057;SDS011;6595;49.578;11.012;2022-10-13T06:16:23;51.3;;;28.0;;
13057;SDS011;6595;49.578;11.012;2022-10-13T06:18:23;47.9;;;27.8;;
13057;SDS011;6595;49.578;11.012;2022-10-13T06:20:23;42.9;;;27.4;;
13057;SDS011;6595;49.578;11.012;2022-10-13T06:22:23;42.9;;;27.4;;
13057;SDS011;6595;49.578;11.012;2022-10-13T06:24:23;50.5;;;28.8;;
13057;SDS011;6595;49.578;11.012;2022-10-13T06:26:24;44.2;;;27.4;;
13057;SDS011;6595;49.578;11.012;2022-10-13T06:28:24;43.9;;;28.5;;
13057;SDS011;6595;49.578;11.012;2022-10-13T06:30:23;43.9;;;28.5;;
13057;SDS011;6595;49.578;11.012;2022-10-13T06:32:23;46.1;;;28.6;;
13057;SDS011;6595;49.578;11.012;2022-10-13T06:34:24;45.7;;;27.2;;
13057;SDS011;6595;49.578;11.012;2022-10-13T06:36:23;45.8;;;28.1;;
13057;SDS011;6595;49.578;11.012;2022-10-13T06:38:23;48.3;;;28.8;;
13057;SDS011;6595;49.578;11.012;2022-10-13T06:40:23;44.3;;;26.9;;
13057;SDS011;6595;49.578;11.012;2022-10-13T06:42:23;44.3;;;26.9;;
13057;SDS011;6595;49.578;11.012;2022-10-13T06:44:23;43.2;;;28.4;;
13057;SDS011;6595;49.578;11.012;2022-10-13T06:46:24;45.2;;;27.6;;
13057;SDS011;6595;49.578;11.012;2022-10-13T06:48:24;44.7;;;27.4;;
13057;SDS011;6595;49.578;11.012;2022-10-13T06:50:24;45.4;;;27.9;;
13057;SDS011;6595;49.578;11.012;2022-10-13T06:52:24;45.4;;;27.9;;
13057;SDS011;6595;49.578;11.012;2022-10-13T06:54:24;39.1;;;26.0;;
13057;SDS011;6595;49.578;11.012;2022-10-13T06:56:23;41.2;;;26.8;;
13057;SDS011;6595;49.578;11.012;2022-10-13T06:58:23;44.1;;;25.7;;
13057;SDS011;6595;49.578;11.012;2022-10-13T07:00:23;42.2;;;27.3;;
13057;SDS011;6595;49.578;11.012;2022-10-13T07:02:23;42.2;;;27.3;;
13057;SDS011;6595;49.578;11.012;2022-10-13T07:04:24;38.7;;;24.7;;
13057;SDS011;6595;49.578;11.012;2022-10-13T07:06:23;35.7;;;24.4;;
13057;SDS011;6595;49.578;11.012;2022-10-13T07:08:23;37.8;;;26.2;;
13057;SDS011;6595;49.578;11.012;2022-10-13T07:10:23;37.8;;;26.2;;
13057;SDS011;6595;49.578;11.012;2022-10-13T07:12:23;35.7;;;24.0;;
13057;SDS011;6595;49.578;11.012;2022-10-13T07:14:23;34.9;;;23.1;;
13057;SDS011;6595;49.578;11.012;2022-10-13T07:16:24;36.1;;;23.7;;
13057;SDS011;6595;49.578;11.012;2022-10-13T07:18:24;32.0;;;22.1;;
13057;SDS011;6595;49.578;11.012;2022-10-13T07:20:24;32.0;;;22.1;;
13057;SDS011;6595;49.578;11.012;2022-10-13T07:22:25;32.5;;;21.8;;
13057;SDS011;6595;49.578;11.012;2022-10-13T07:24:23;32.2;;;21.8;;
13057;SDS011;6595;49.578;11.012;2022-10-13T07:26:23;32.0;;;22.3;;
13057;SDS011;6595;49.578;11.012;2022-10-13T07:28:24;27.6;;;21.4;;
13057;SDS011;6595;49.578;11.012;2022-10-13T07:30:24;27.6;;;21.4;;
13057;SDS011;6595;49.578;11.012;2022-10-13T07:32:23;29.8;;;22.3;;
13057;SDS011;6595;49.578;11.012;2022-10-13T07:34:24;29.5;;;20.8;;
13057;SDS011;6595;49.578;11.012;2022-10-13T07:36:23;28.6;;;20.2;;
13057;SDS011;6595;49.578;11.012;2022-10-13T07:38:23;28.6;;;20.2;;
13057;SDS011;6595;49.578;11.012;2022-10-13T07:40:23;26.8;;;20.4;;
13057;SDS011;6595;49.578;11.012;2022-10-13T07:42:23;28.8;;;21.2;;
13057;SDS011;6595;49.578;11.012;2022-10-13T07:44:23;26.7;;;19.2;;
13057;SDS011;6595;49.578;11.012;2022-10-13T07:46:24;27.1;;;20.2;;
13057;SDS011;6595;49.578;11.012;2022-10-13T07:48:24;27.1;;;20.2;;
13057;SDS011;6595;49.578;11.012;2022-10-13T07:50:23;33.6;;;20.9;;
13057;SDS011;6595;49.578;11.012;2022-10-13T07:52:24;29.3;;;20.3;;
13057;SDS011;6595;49.578;11.012;2022-10-13T07:54:23;24.7;;;19.6;;
13057;SDS011;6595;49.578;11.012;2022-10-13T07:56:24;31.6;;;19.9;;
13057;SDS011;6595;49.578;11.012;2022-10-13T07:58:24;31.6;;;19.9;;
13057;SDS011;6595;49.578;11.012;2022-10-13T08:00:23;24.0;;;17.8;;
13057;SDS011;6595;49.578;11.012;2022-10-13T08:02:23;22.7;;;17.5;;
13057;SDS011;6595;49.578;11.012;2022-10-13T08:04:24;22.7;;;17.5;;
13057;SDS011;6595;49.578;11.012;2022-10-13T08:06:23;23.9;;;18.1;;
13057;SDS011;6595;49.578;11.012;2022-10-13T08:08:23;23.9;;;18.1;;
13057;SDS011;6595;49.578;11.012;2022-10-13T08:10:23;20.3;;;16.7;;
13057;SDS011;6595;49.578;11.012;2022-10-13T08:12:23;23.4;;;17.5;;
13057;SDS011;6595;49.578;11.012;2022-10-13T08:14:23;21.0;;;16.9;;
13057;SDS011;6595;49.578;11.012;2022-10-13T08:16:23;21.5;;;17.0;;
13057;SDS011;6595;49.578;11.012;2022-10-13T08:18:23;21.5;;;17.0;;
13057;SDS011;6595;49.578;11.012;2022-10-13T08:20:23;21.1;;;16.6;;
13057;SDS011;6595;49.578;11.012;2022-10-13T08:22:23;22.7;;;17.7;;
13057;SDS011;6595;49.578;11.012;2022-10-13T08:24:23;19.2;;;15.7;;
13057;SDS011;6595;49.578;11.012;2022-10-13T08:26:24;26.7;;;21.0;;
13057;SDS011;6595;49.578;11.012;2022-10-13T08:28:25;26.7;;;21.0;;
13057;SDS011;6595;49.578;11.012;2022-10-13T08:30:23;25.4;;;18.6;;
13057;SDS011;6595;49.578;11.012;2022-10-13T08:32:23;22.0;;;17.3;;
13057;SDS011;6595;49.578;11.012;2022-10-13T08:34:24;20.3;;;16.5;;
13057;SDS011;6595;49.578;11.012;2022-10-13T08:36:24;20.3;;;16.5;;
13057;SDS011;6595;49.578;11.012;2022-10-13T08:38:24;19.7;;;15.4;;
13057;SDS011;6595;49.578;11.012;2022-10-13T08:40:24;24.4;;;17.6;;
13057;SDS011;6595;49.578;11.012;2022-10-13T08:42:24;24.4;;;17.6;;
13057;SDS011;6595;49.578;11.012;2022-10-13T08:44:25;22.0;;;16.7;;
13057;SDS011;6595;49.578;11.012;2022-10-13T08:46:24;22.0;;;16.7;;
13057;SDS011;6595;49.578;11.012;2022-10-13T08:48:24;18.0;;;14.9;;
13057;SDS011;6595;49.578;11.012;2022-10-13T08:50:25;21.9;;;16.0;;
13057;SDS011;6595;49.578;11.012;2022-10-13T08:52:25;28.1;;;18.4;;
13057;SDS011;6595;49.578;11.012;2022-10-13T08:54:24;28.1;;;18.4;;
13057;SDS011;6595;49.578;11.012;2022-10-13T08:56:24;25.7;;;17.9;;
13057;SDS011;6595;49.578;11.012;2022-10-13T08:58:25;26.9;;;18.8;;
13057;SDS011;6595;49.578;11.012;2022-10-13T09:00:23;21.9;;;16.5;;
13057;SDS011;6595;49.578;11.012;2022-10-13T09:02:27;25.6;;;16.2;;
13057;SDS011;6595;49.578;11.012;2022-10-13T09:04:26;21.6;;;15.6;;
13057;SDS011;6595;49.578;11.012;2022-10-13T09:06:25;21.6;;;15.6;;
13057;SDS011;6595;49.578;11.012;2022-10-13T09:08:24;21.8;;;15.8;;
13057;SDS011;6595;49.578;11.012;2022-10-13T09:10:24;22.3;;;15.7;;
13057;SDS011;6595;49.578;11.012;2022-10-13T09:12:23;19.0;;;15.2;;
13057;SDS011;6595;49.578;11.012;2022-10-13T09:14:24;19.0;;;15.2;;
13057;SDS011;6595;49.578;11.012;2022-10-13T09:16:25;19.4;;;15.5;;
13057;SDS011;6595;49.578;11.012;2022-10-13T09:18:26;18.5;;;15.1;;
13057;SDS011;6595;49.578;11.012;2022-10-13T09:20:24;21.5;;;16.2;;
13057;SDS011;6595;49.578;11.012;2022-10-13T09:22:24;29.9;;;16.5;;
13057;SDS011;6595;49.578;11.012;2022-10-13T09:24:25;23.2;;;16.2;;
13057;SDS011;6595;49.578;11.012;2022-10-13T09:26:23;23.2;;;16.2;;
13057;SDS011;6595;49.578;11.012;2022-10-13T09:28:24;28.0;;;17.2;;
13057;SDS011;6595;49.578;11.012;2022-10-13T09:30:26;24.5;;;16.6;;
13057;SDS011;6595;49.578;11.012;2022-10-13T09:32:24;19.9;;;15.3;;
13057;SDS011;6595;49.578;11.012;2022-10-13T09:34:23;19.9;;;15.3;;
13057;SDS011;6595;49.578;11.012;2022-10-13T09:36:24;20.0;;;15.4;;
13057;SDS011;6595;49.578;11.012;2022-10-13T09:38:24;20.4;;;15.2;;
13057;SDS011;6595;49.578;11.012;2022-10-13T09:40:23;20.5;;;15.1;;
13057;SDS011;6595;49.578;11.012;2022-10-13T09:42:24;20.5;;;15.1;;
13057;SDS011;6595;49.578;11.012;2022-10-13T09:44:26;20.3;;;15.4;;
13057;SDS011;6595;49.578;11.012;2022-10-13T09:46:24;21.6;;;15.9;;
13057;SDS011;6595;49.578;11.012;2022-10-13T09:48:24;18.7;;;15.2;;
13057;SDS011;6595;49.578;11.012;2022-10-13T09:50:24;17.0;;;15.1;;
13057;SDS011;6595;49.578;11.012;2022-10-13T09:52:23;17.5;;;15.0;;
13057;SDS011;6595;49.578;11.012;2022-10-13T09:54:25;17.5;;;15.0;;
13057;SDS011;6595;49.578;11.012;2022-10-13T09:56:24;19.1;;;16.0;;
13057;SDS011;6595;49.578;11.012;2022-10-13T09:58:25;22.1;;;15.2;;
13057;SDS011;6595;49.578;11.012;2022-10-13T10:00:25;19.2;;;15.9;;
13057;SDS011;6595;49.578;11.012;2022-10-13T10:02:26;19.3;;;16.1;;
13057;SDS011;6595;49.578;11.012;2022-10-13T10:04:24;19.3;;;16.1;;
13057;SDS011;6595;49.578;11.012;2022-10-13T10:06:23;19.2;;;15.8;;
13057;SDS011;6595;49.578;11.012;2022-10-13T10:08:25;21.4;;;17.1;;
13057;SDS011;6595;49.578;11.012;2022-10-13T10:10:27;22.5;;;16.9;;
13057;SDS011;6595;49.578;11.012;2022-10-13T10:12:25;22.5;;;16.9;;
13057;SDS011;6595;49.578;11.012;2022-10-13T10:14:24;21.0;;;17.3;;
13057;SDS011;6595;49.578;11.012;2022-10-13T10:16:24;19.2;;;16.1;;
13057;SDS011;6595;49.578;11.012;2022-10-13T10:18:26;19.2;;;16.1;;
13057;SDS011;6595;49.578;11.012;2022-10-13T10:20:31;19.3;;;15.8;;
13057;SDS011;6595;49.578;11.012;2022-10-13T10:22:25;19.3;;;15.8;;
13057;SDS011;6595;49.578;11.012;2022-10-13T10:24:24;19.6;;;15.3;;
13057;SDS011;6595;49.578;11.012;2022-10-13T10:26:25;19.5;;;15.8;;
13057;SDS011;6595;49.578;11.012;2022-10-13T10:28:32;19.5;;;15.5;;
13057;SDS011;6595;49.578;11.012;2022-10-13T10:30:24;21.8;;;16.8;;
13057;SDS011;6595;49.578;11.012;2022-10-13T10:32:26;21.8;;;16.8;;
13057;SDS011;6595;49.578;11.012;2022-10-13T10:34:26;19.4;;;15.6;;
13057;SDS011;6595;49.578;11.012;2022-10-13T10:36:26;23.8;;;17.0;;
13057;SDS011;6595;49.578;11.012;2022-10-13T10:38:26;19.0;;;15.4;;
13057;SDS011;6595;49.578;11.012;2022-10-13T10:40:28;18.6;;;15.3;;
13057;SDS011;6595;49.578;11.012;2022-10-13T10:42:31;18.6;;;15.3;;
13057;SDS011;6595;49.578;11.012;2022-10-13T10:44:23;21.3;;;16.8;;
13057;SDS011;6595;49.578;11.012;2022-10-13T10:46:24;24.0;;;16.0;;
13057;SDS011;6595;49.578;11.012;2022-10-13T10:48:24;20.7;;;15.5;;
13057;SDS011;6595;49.578;11.012;2022-10-13T10:50:23;21.6;;;15.1;;
13057;SDS011;6595;49.578;11.012;2022-10-13T10:52:25;21.6;;;15.1;;
13057;SDS011;6595;49.578;11.012;2022-10-13T10:54:25;19.9;;;15.1;;
13057;SDS011;6595;49.578;11.012;2022-10-13T10:56:26;19.9;;;14.9;;
13057;SDS011;6595;49.578;11.012;2022-10-13T10:58:25;23.1;;;16.6;;
13057;SDS011;6595;49.578;11.012;2022-10-13T11:00:23;23.1;;;16.6;;
13057;SDS011;6595;49.578;11.012;2022-10-13T11:02:29;22.1;;;16.3;;
13057;SDS011;6595;49.578;11.012;2022-10-13T11:04:32;22.3;;;16.1;;
13057;SDS011;6595;49.578;11.012;2022-10-13T11:06:24;22.7;;;18.4;;
13057;SDS011;6595;49.578;11.012;2022-10-13T11:08:25;20.9;;;16.8;;
13057;SDS011;6595;49.578;11.012;2022-10-13T11:10:23;20.9;;;16.8;;
13057;SDS011;6595;49.578;11.012;2022-10-13T11:12:23;26.6;;;19.9;;
13057;SDS011;6595;49.578;11.012;2022-10-13T11:14:24;22.7;;;16.1;;
13057;SDS011;6595;49.578;11.012;2022-10-13T11:16:26;19.6;;;15.4;;
13057;SDS011;6595;49.578;11.012;2022-10-13T11:22:24;18.7;;;14.3;;
13057;SDS011;6595;49.578;11.012;2022-10-13T11:26:27;21.2;;;14.9;;
13057;SDS011;6595;49.578;11.012;2022-10-13T11:34:25;16.9;;;13.9;;
13057;SDS011;6595;49.578;11.012;2022-10-13T11:38:26;17.0;;;13.8;;
13057;SDS011;6595;49.578;11.012;2022-10-13T11:40:24;17.6;;;13.9;;
13057;SDS011;6595;49.578;11.012;2022-10-13T11:42:27;17.7;;;14.0;;
13057;SDS011;6595;49.578;11.012;2022-10-13T11:44:25;17.2;;;13.7;;
13057;SDS011;6595;49.578;11.012;2022-10-13T11:46:24;18.2;;;14.3;;
13057;SDS011;6595;49.578;11.012;2022-10-13T11:50:26;17.7;;;14.9;;
13057;SDS011;6595;49.578;11.012;2022-10-13T11:52:26;17.7;;;14.9;;
13057;SDS011;6595;49.578;11.012;2022-10-13T11:54:26;18.8;;;14.5;;
13057;SDS011;6595;49.578;11.012;2022-10-13T11:56:31;17.3;;;14.2;;
13057;SDS011;6595;49.578;11.012;2022-10-13T11:58:25;17.3;;;14.2;;
13057;SDS011;6595;49.578;11.012;2022-10-13T12:00:24;18.9;;;15.0;;
13057;SDS011;6595;49.578;11.012;2022-10-13T12:02:24;19.2;;;15.6;;
13057;SDS011;6595;49.578;11.012;2022-10-13T12:04:24;22.5;;;16.4;;
13057;SDS011;6595;49.578;11.012;2022-10-13T12:06:26;22.5;;;16.4;;
13057;SDS011;6595;49.578;11.012;2022-10-13T12:08:23;20.2;;;15.9;;
13057;SDS011;6595;49.578;11.012;2022-10-13T12:10:24;19.4;;;15.5;;
13057;SDS011;6595;49.578;11.012;2022-10-13T12:12:23;17.3;;;14.8;;
13057;SDS011;6595;49.578;11.012;2022-10-13T12:14:26;20.8;;;16.0;;
13057;SDS011;6595;49.578;11.012;2022-10-13T12:16:23;20.8;;;16.0;;
13057;SDS011;6595;49.578;11.012;2022-10-13T12:18:24;20.0;;;15.2;;
13057;SDS011;6595;49.578;11.012;2022-10-13T12:20:24;22.1;;;16.0;;
13057;SDS011;6595;49.578;11.012;2022-10-13T12:22:23;26.3;;;17.2;;